createdAt,value
2024-05-09T00:00:29.905Z,0.00
2024-05-09T00:01:23.147Z,0.00
2024-05-09T00:02:21.160Z,0.00
2024-05-09T00:03:21.094Z,0.00
2024-05-09T00:04:21.088Z,0.00
2024-05-09T00:05:21.111Z,0.00
2024-05-09T00:06:21.043Z,0.00
2024-05-09T00:07:21.034Z,0.00
2024-05-09T00:08:21.027Z,0.00
2024-05-09T00:09:21.006Z,0.00
2024-05-09T00:10:25.609Z,0.00
2024-05-09T00:11:23.211Z,0.00
2024-05-09T00:12:21.186Z,0.00
2024-05-09T00:13:21.042Z,0.00
2024-05-09T00:14:20.991Z,0.00
2024-05-09T00:15:21.060Z,0.00
2024-05-09T00:16:20.942Z,0.00
2024-05-09T00:17:21.014Z,0.00
2024-05-09T00:18:21.139Z,0.00
2024-05-09T00:19:21.100Z,0.00
2024-05-09T00:20:28.066Z,0.00
2024-05-09T00:21:21.864Z,0.00
2024-05-09T00:22:20.935Z,0.00
2024-05-09T00:23:20.953Z,0.00
2024-05-09T00:24:20.872Z,0.00
2024-05-09T00:25:20.831Z,0.00
2024-05-09T00:26:20.903Z,0.00
2024-05-09T00:27:20.951Z,0.00
2024-05-09T00:28:20.909Z,0.00
2024-05-09T00:29:21.083Z,0.00
2024-05-09T00:30:27.814Z,0.00
2024-05-09T00:31:22.791Z,0.00
2024-05-09T00:32:21.059Z,0.00
2024-05-09T00:33:21.067Z,0.00
2024-05-09T00:34:20.822Z,0.00
2024-05-09T00:35:20.763Z,0.00
2024-05-09T00:36:20.733Z,0.00
2024-05-09T00:37:20.672Z,0.00
2024-05-09T00:38:20.747Z,0.00
2024-05-09T00:39:20.719Z,0.00
2024-05-09T00:40:30.770Z,0.00
2024-05-09T00:41:22.670Z,0.00
2024-05-09T00:42:20.646Z,0.00
2024-05-09T00:43:20.614Z,0.00
2024-05-09T00:44:20.667Z,0.00
2024-05-09T00:45:20.604Z,0.00
2024-05-09T00:46:20.619Z,0.00
2024-05-09T00:47:20.761Z,0.00
2024-05-09T00:48:21.600Z,0.00
2024-05-09T00:49:20.755Z,0.00
2024-05-09T00:50:29.409Z,0.00
2024-05-09T00:51:21.837Z,0.00
2024-05-09T00:52:20.513Z,0.00
2024-05-09T00:53:20.619Z,0.00
2024-05-09T00:54:20.501Z,0.00
2024-05-09T00:55:20.529Z,0.00
2024-05-09T00:56:20.535Z,0.00
2024-05-09T00:57:20.529Z,0.00
2024-05-09T00:58:20.640Z,0.00
2024-05-09T00:59:20.518Z,0.00
2024-05-09T01:00:27.256Z,0.00
2024-05-09T01:01:22.492Z,0.00
2024-05-09T01:02:20.477Z,0.00
2024-05-09T01:03:20.767Z,0.00
2024-05-09T01:04:20.442Z,0.00
2024-05-09T01:05:20.499Z,0.00
2024-05-09T01:06:20.361Z,0.00
2024-05-09T01:07:20.370Z,0.00
2024-05-09T01:08:20.459Z,0.00
2024-05-09T01:09:20.399Z,0.00
2024-05-09T01:10:27.633Z,0.00
2024-05-09T01:11:22.395Z,0.00
2024-05-09T01:12:20.386Z,0.00
2024-05-09T01:13:20.290Z,0.00
2024-05-09T01:14:20.410Z,0.00
2024-05-09T01:15:20.269Z,0.00
2024-05-09T01:16:21.044Z,0.00
2024-05-09T01:17:20.351Z,0.00
2024-05-09T01:18:20.454Z,0.00
2024-05-09T01:19:20.402Z,0.00
2024-05-09T01:20:27.805Z,0.00
2024-05-09T01:21:21.293Z,0.00
2024-05-09T01:22:20.202Z,0.00
2024-05-09T01:23:20.334Z,0.00
2024-05-09T01:24:20.225Z,0.00
2024-05-09T01:25:20.162Z,0.00
2024-05-09T01:26:20.163Z,0.00
2024-05-09T01:27:20.141Z,0.00
2024-05-09T01:28:20.198Z,0.00
2024-05-09T01:29:20.214Z,0.00
2024-05-09T01:30:24.382Z,0.00
2024-05-09T01:31:22.128Z,0.00
2024-05-09T01:32:20.189Z,0.00
2024-05-09T01:33:20.309Z,0.00
2024-05-09T01:34:20.171Z,0.00
2024-05-09T01:35:20.572Z,0.00
2024-05-09T01:36:20.049Z,0.00
2024-05-09T01:37:20.040Z,0.00
2024-05-09T01:38:20.152Z,0.00
2024-05-09T01:39:20.004Z,0.00
2024-05-09T01:40:25.347Z,0.00
2024-05-09T01:41:22.059Z,0.00
2024-05-09T01:42:19.983Z,0.00
2024-05-09T01:43:20.024Z,0.00
2024-05-09T01:44:20.058Z,0.00
2024-05-09T01:45:19.953Z,0.00
2024-05-09T01:46:19.954Z,0.00
2024-05-09T01:47:19.950Z,0.00
2024-05-09T01:48:20.021Z,0.00
2024-05-09T01:49:19.977Z,0.00
2024-05-09T01:50:28.967Z,0.00
2024-05-09T01:51:21.935Z,0.00
2024-05-09T01:52:19.851Z,0.00
2024-05-09T01:53:19.868Z,0.00
2024-05-09T01:54:19.843Z,0.00
2024-05-09T01:55:19.819Z,0.00
2024-05-09T01:56:19.877Z,0.00
2024-05-09T01:57:19.843Z,0.00
2024-05-09T01:58:19.794Z,0.00
2024-05-09T01:59:19.817Z,0.00
2024-05-09T02:00:30.180Z,0.00
2024-05-09T02:01:20.819Z,0.00
2024-05-09T02:02:19.912Z,0.00
2024-05-09T02:03:19.926Z,0.00
2024-05-09T02:04:19.938Z,0.00
2024-05-09T02:05:19.863Z,0.00
2024-05-09T02:06:19.735Z,0.00
2024-05-09T02:07:19.722Z,0.00
2024-05-09T02:08:19.985Z,0.00
2024-05-09T02:09:19.666Z,0.00
2024-05-09T02:10:25.975Z,0.00
2024-05-09T02:11:21.713Z,0.00
2024-05-09T02:12:19.863Z,0.00
2024-05-09T02:13:19.624Z,0.00
2024-05-09T02:14:19.728Z,0.00
2024-05-09T02:15:19.643Z,0.00
2024-05-09T02:16:19.592Z,0.00
2024-05-09T02:17:19.618Z,0.00
2024-05-09T02:18:19.717Z,0.00
2024-05-09T02:19:19.657Z,0.00
2024-05-09T02:20:29.974Z,0.00
2024-05-09T02:21:20.526Z,0.00
2024-05-09T02:22:19.535Z,0.00
2024-05-09T02:23:19.633Z,0.00
2024-05-09T02:24:19.486Z,0.00
2024-05-09T02:25:19.495Z,0.00
2024-05-09T02:26:19.553Z,0.00
2024-05-09T02:27:19.455Z,0.00
2024-05-09T02:28:19.438Z,0.00
2024-05-09T02:29:19.551Z,0.00
2024-05-09T02:30:26.401Z,0.00
2024-05-09T02:31:20.458Z,0.00
2024-05-09T02:32:19.496Z,0.00
2024-05-09T02:33:19.515Z,0.00
2024-05-09T02:34:19.638Z,0.00
2024-05-09T02:35:19.434Z,0.00
2024-05-09T02:36:19.405Z,0.00
2024-05-09T02:37:19.368Z,0.00
2024-05-09T02:38:19.398Z,0.00
2024-05-09T02:39:19.435Z,0.00
2024-05-09T02:40:25.750Z,0.00
2024-05-09T02:41:21.397Z,0.00
2024-05-09T02:42:19.330Z,0.00
2024-05-09T02:43:19.285Z,0.00
2024-05-09T02:44:19.314Z,0.00
2024-05-09T02:45:19.285Z,0.00
2024-05-09T02:46:19.289Z,0.00
2024-05-09T02:47:19.420Z,0.00
2024-05-09T02:48:19.445Z,0.00
2024-05-09T02:49:19.322Z,0.00
2024-05-09T02:50:26.740Z,0.00
2024-05-09T02:51:21.299Z,0.00
2024-05-09T02:52:19.223Z,0.00
2024-05-09T02:53:19.288Z,0.00
2024-05-09T02:54:19.185Z,0.00
2024-05-09T02:55:19.188Z,0.00
2024-05-09T02:56:19.303Z,0.00
2024-05-09T02:57:19.177Z,0.00
2024-05-09T02:58:19.145Z,0.00
2024-05-09T02:59:19.219Z,0.00
2024-05-09T03:00:26.236Z,0.00
2024-05-09T03:01:20.157Z,0.00
2024-05-09T03:02:19.235Z,0.00
2024-05-09T03:03:19.380Z,4.00
2024-05-09T03:04:19.148Z,4.00
2024-05-09T03:05:19.164Z,0.00
2024-05-09T03:06:19.065Z,4.00
2024-05-09T03:07:20.199Z,4.00
2024-05-09T03:08:20.069Z,0.00
2024-05-09T03:09:19.010Z,4.00
2024-05-09T03:10:25.383Z,4.00
2024-05-09T03:11:20.120Z,8.00
2024-05-09T03:12:19.036Z,8.00
2024-05-09T03:13:18.985Z,8.00
2024-05-09T03:14:19.004Z,8.00
2024-05-09T03:15:18.966Z,12.00
2024-05-09T03:16:18.938Z,12.00
2024-05-09T03:17:19.002Z,12.00
2024-05-09T03:18:19.113Z,16.00
2024-05-09T03:19:19.026Z,16.00
2024-05-09T03:20:23.865Z,20.00
2024-05-09T03:21:20.950Z,24.00
2024-05-09T03:22:18.906Z,32.00
2024-05-09T03:23:18.895Z,36.00
2024-05-09T03:24:18.941Z,40.00
2024-05-09T03:25:18.849Z,44.00
2024-05-09T03:26:18.944Z,48.00
2024-05-09T03:27:18.834Z,56.00
2024-05-09T03:28:18.905Z,64.00
2024-05-09T03:29:18.954Z,76.00
2024-05-09T03:30:26.113Z,84.00
2024-05-09T03:31:20.764Z,92.00
2024-05-09T03:32:18.997Z,104.00
2024-05-09T03:33:20.222Z,120.00
2024-05-09T03:34:18.866Z,128.00
2024-05-09T03:35:18.847Z,148.00
2024-05-09T03:36:18.727Z,160.00
2024-05-09T03:37:18.756Z,180.00
2024-05-09T03:38:18.774Z,196.00
2024-05-09T03:39:19.880Z,220.00
2024-05-09T03:40:23.523Z,236.00
2024-05-09T03:41:19.697Z,264.00
2024-05-09T03:42:18.653Z,284.00
2024-05-09T03:43:18.768Z,308.00
2024-05-09T03:44:18.655Z,336.00
2024-05-09T03:45:18.631Z,364.00
2024-05-09T03:46:19.611Z,392.00
2024-05-09T03:47:18.692Z,424.00
2024-05-09T03:48:18.809Z,460.00
2024-05-09T03:49:18.751Z,488.00
2024-05-09T03:50:26.060Z,524.00
2024-05-09T03:51:19.674Z,560.00
2024-05-09T03:52:18.557Z,596.00
2024-05-09T03:53:18.628Z,636.00
2024-05-09T03:54:18.524Z,676.00
2024-05-09T03:55:18.505Z,716.00
2024-05-09T03:56:18.593Z,760.00
2024-05-09T03:57:18.497Z,800.00
2024-05-09T03:58:18.485Z,844.00
2024-05-09T03:59:18.527Z,888.00
2024-05-09T04:00:26.480Z,932.00
2024-05-09T04:01:19.558Z,980.00
2024-05-09T04:02:19.049Z,1028.00
2024-05-09T04:03:18.914Z,1072.00
2024-05-09T04:04:18.566Z,1120.00
2024-05-09T04:05:18.476Z,1164.00
2024-05-09T04:06:18.401Z,1216.00
2024-05-09T04:07:18.394Z,1264.00
2024-05-09T04:08:18.459Z,1312.00
2024-05-09T04:09:18.389Z,1364.00
2024-05-09T04:10:27.391Z,1412.00
2024-05-09T04:11:19.430Z,1460.00
2024-05-09T04:12:18.416Z,1508.00
2024-05-09T04:13:18.362Z,1560.00
2024-05-09T04:14:18.344Z,1612.00
2024-05-09T04:15:18.321Z,1660.00
2024-05-09T04:16:18.318Z,1712.00
2024-05-09T04:17:18.408Z,1764.00
2024-05-09T04:18:18.354Z,1816.00
2024-05-09T04:19:18.476Z,1872.00
2024-05-09T04:20:28.792Z,1924.00
2024-05-09T04:21:20.233Z,1976.00
2024-05-09T04:22:18.250Z,2024.00
2024-05-09T04:23:18.241Z,2084.00
2024-05-09T04:24:18.198Z,2136.00
2024-05-09T04:25:18.273Z,2192.00
2024-05-09T04:26:18.202Z,2240.00
2024-05-09T04:27:18.167Z,2288.00
2024-05-09T04:28:18.273Z,2332.00
2024-05-09T04:29:18.179Z,2380.00
2024-05-09T04:30:25.809Z,2432.00
2024-05-09T04:31:20.149Z,2488.00
2024-05-09T04:32:18.221Z,2544.00
2024-05-09T04:33:18.276Z,2596.00
2024-05-09T04:34:18.181Z,2652.00
2024-05-09T04:35:18.125Z,2708.00
2024-05-09T04:36:18.106Z,2760.00
2024-05-09T04:37:18.098Z,2816.00
2024-05-09T04:38:18.083Z,2868.00
2024-05-09T04:39:18.065Z,2924.00
2024-05-09T04:40:24.466Z,2980.00
2024-05-09T04:41:19.047Z,3024.00
2024-05-09T04:42:18.460Z,3068.00
2024-05-09T04:43:18.010Z,3116.00
2024-05-09T04:44:18.130Z,3168.00
2024-05-09T04:45:17.997Z,3220.00
2024-05-09T04:46:17.964Z,3276.00
2024-05-09T04:47:18.246Z,3332.00
2024-05-09T04:48:18.077Z,3384.00
2024-05-09T04:49:18.178Z,3440.00
2024-05-09T04:50:28.829Z,3492.00
2024-05-09T04:51:19.904Z,3548.00
2024-05-09T04:52:17.916Z,3596.00
2024-05-09T04:53:18.167Z,3648.00
2024-05-09T04:54:29.876Z,3696.00
2024-05-09T04:55:19.861Z,3744.00
2024-05-09T04:56:17.944Z,3800.00
2024-05-09T04:57:17.851Z,3848.00
2024-05-09T04:58:17.865Z,3900.00
2024-05-09T04:59:17.888Z,3952.00
2024-05-09T05:00:25.729Z,4004.00
2024-05-09T05:01:19.886Z,4056.00
2024-05-09T05:02:17.851Z,4104.00
2024-05-09T05:03:18.128Z,4144.00
2024-05-09T05:04:17.935Z,4196.00
2024-05-09T05:05:17.847Z,4288.00
2024-05-09T05:06:17.802Z,4340.00
2024-05-09T05:07:17.724Z,4388.00
2024-05-09T05:08:18.790Z,4440.00
2024-05-09T05:09:17.731Z,4488.00
2024-05-09T05:10:25.137Z,4540.00
2024-05-09T05:11:19.840Z,4600.00
2024-05-09T05:12:17.742Z,4660.00
2024-05-09T05:13:18.686Z,4720.00
2024-05-09T05:14:17.726Z,4780.00
2024-05-09T05:15:17.698Z,4840.00
2024-05-09T05:16:18.510Z,4908.00
2024-05-09T05:17:17.633Z,4980.00
2024-05-09T05:18:19.875Z,5108.00
2024-05-09T05:19:17.927Z,6340.00
2024-05-09T05:20:27.031Z,13696.00
2024-05-09T05:21:19.705Z,28608.00
2024-05-09T05:22:17.563Z,34016.00
2024-05-09T05:23:17.589Z,34336.00
2024-05-09T05:24:17.545Z,37856.00
2024-05-09T05:25:17.524Z,34848.00
2024-05-09T05:26:17.579Z,35904.00
2024-05-09T05:27:17.518Z,36768.00
2024-05-09T05:28:17.608Z,33600.00
2024-05-09T05:29:20.712Z,32128.00
2024-05-09T05:30:25.050Z,33216.00
2024-05-09T05:31:18.567Z,31936.00
2024-05-09T05:32:17.579Z,33600.00
2024-05-09T05:33:17.577Z,34368.00
2024-05-09T05:34:17.449Z,36416.00
2024-05-09T05:35:18.401Z,38304.00
2024-05-09T05:36:17.457Z,39328.00
2024-05-09T05:37:17.451Z,37792.00
2024-05-09T05:38:17.580Z,34656.00
2024-05-09T05:39:17.426Z,33184.00
2024-05-09T05:40:25.140Z,35648.00
2024-05-09T05:41:19.518Z,42016.00
2024-05-09T05:42:17.380Z,42624.00
2024-05-09T05:43:17.386Z,38464.00
2024-05-09T05:44:17.557Z,37376.00
2024-05-09T05:45:17.324Z,36288.00
2024-05-09T05:46:17.295Z,37248.00
2024-05-09T05:47:17.388Z,38368.00
2024-05-09T05:48:18.023Z,39968.00
2024-05-09T05:49:17.449Z,42144.00
2024-05-09T05:50:24.716Z,42176.00
2024-05-09T05:51:19.297Z,40544.00
2024-05-09T05:52:17.226Z,41920.00
2024-05-09T05:53:17.351Z,43712.00
2024-05-09T05:54:17.255Z,41504.00
2024-05-09T05:55:17.196Z,39392.00
2024-05-09T05:56:17.250Z,41696.00
2024-05-09T05:57:17.212Z,44032.00
2024-05-09T05:58:17.177Z,42816.00
2024-05-09T05:59:17.185Z,42656.00
2024-05-09T06:00:26.072Z,41696.00
2024-05-09T06:01:19.218Z,41440.00
2024-05-09T06:02:17.451Z,42272.00
2024-05-09T06:03:17.218Z,42912.00
2024-05-09T06:04:17.195Z,42368.00
2024-05-09T06:05:17.102Z,43136.00
2024-05-09T06:06:17.077Z,44960.00
2024-05-09T06:07:17.071Z,43744.00
2024-05-09T06:08:17.111Z,42912.00
2024-05-09T06:09:17.089Z,42176.00
2024-05-09T06:10:21.535Z,43872.00
2024-05-09T06:11:19.195Z,43168.00
2024-05-09T06:12:17.107Z,43968.00
2024-05-09T06:13:17.039Z,47168.00
2024-05-09T06:14:17.095Z,49984.00
2024-05-09T06:15:16.989Z,48384.00
2024-05-09T06:16:16.996Z,47200.00
2024-05-09T06:17:17.187Z,46368.00
2024-05-09T06:18:17.245Z,44480.00
2024-05-09T06:19:17.120Z,47072.00
2024-05-09T06:20:23.838Z,48448.00
2024-05-09T06:21:18.079Z,48288.00
2024-05-09T06:22:16.935Z,47328.00
2024-05-09T06:23:16.973Z,33568.00
2024-05-09T06:24:16.880Z,15200.00
2024-05-09T06:25:16.874Z,21664.00
2024-05-09T06:26:16.907Z,22976.00
2024-05-09T06:27:16.870Z,13040.00
2024-05-09T06:28:16.840Z,9028.00
2024-05-09T06:29:16.928Z,8924.00
2024-05-09T06:30:25.778Z,8984.00
2024-05-09T06:31:19.055Z,9056.00
2024-05-09T06:32:16.876Z,9192.00
2024-05-09T06:33:17.158Z,12472.00
2024-05-09T06:34:16.935Z,21472.00
2024-05-09T06:35:16.811Z,19520.00
2024-05-09T06:36:16.772Z,12860.00
2024-05-09T06:37:16.770Z,9068.00
2024-05-09T06:38:16.788Z,8960.00
2024-05-09T06:39:16.721Z,9128.00
2024-05-09T06:40:21.426Z,9236.00
2024-05-09T06:41:18.911Z,9396.00
2024-05-09T06:42:17.428Z,10416.00
2024-05-09T06:43:18.797Z,12940.00
2024-05-09T06:44:16.685Z,13848.00
2024-05-09T06:45:16.656Z,30496.00
2024-05-09T06:46:16.647Z,33344.00
2024-05-09T06:47:16.753Z,27680.00
2024-05-09T06:48:16.711Z,25536.00
2024-05-09T06:49:16.821Z,22912.00
2024-05-09T06:50:23.682Z,23968.00
2024-05-09T06:51:17.686Z,25376.00
2024-05-09T06:52:16.608Z,58880.00
2024-05-09T06:53:16.596Z,55616.00
2024-05-09T06:54:16.580Z,62304.00
2024-05-09T06:55:16.578Z,63584.00
2024-05-09T06:56:16.628Z,65888.00
2024-05-09T06:57:16.543Z,68192.00
2024-05-09T06:58:16.534Z,68992.00
2024-05-09T06:59:16.592Z,68544.00
2024-05-09T07:00:26.642Z,66784.00
2024-05-09T07:01:18.586Z,65728.00
2024-05-09T07:02:16.577Z,66048.00
2024-05-09T07:03:18.410Z,67744.00
2024-05-09T07:04:16.656Z,68416.00
2024-05-09T07:05:16.508Z,68672.00
2024-05-09T07:06:17.469Z,65216.00
2024-05-09T07:07:16.402Z,64704.00
2024-05-09T07:08:16.742Z,67424.00
2024-05-09T07:09:16.419Z,71936.00
2024-05-09T07:10:22.116Z,70880.00
2024-05-09T07:11:18.462Z,68192.00
2024-05-09T07:12:16.493Z,66944.00
2024-05-09T07:13:16.361Z,67328.00
2024-05-09T07:14:16.462Z,67936.00
2024-05-09T07:15:16.375Z,68832.00
2024-05-09T07:16:16.384Z,69408.00
2024-05-09T07:17:16.343Z,68128.00
2024-05-09T07:18:17.989Z,67008.00
2024-05-09T07:19:16.429Z,67680.00
2024-05-09T07:20:23.418Z,69568.00
2024-05-09T07:21:18.325Z,70560.00
2024-05-09T07:22:16.259Z,71552.00
2024-05-09T07:23:16.481Z,72320.00
2024-05-09T07:24:16.259Z,75904.00
2024-05-09T07:25:16.239Z,76160.00
2024-05-09T07:26:16.315Z,74816.00
2024-05-09T07:27:16.240Z,72096.00
2024-05-09T07:28:16.272Z,70400.00
2024-05-09T07:29:16.276Z,70656.00
2024-05-09T07:30:22.992Z,73152.00
2024-05-09T07:31:18.150Z,74464.00
2024-05-09T07:32:16.276Z,73248.00
2024-05-09T07:33:16.486Z,72192.00
2024-05-09T07:34:16.240Z,72384.00
2024-05-09T07:35:16.182Z,76032.00
2024-05-09T07:36:16.138Z,76384.00
2024-05-09T07:37:16.104Z,74304.00
2024-05-09T07:38:16.261Z,72224.00
2024-05-09T07:39:16.118Z,70304.00
2024-05-09T07:40:24.888Z,69120.00
2024-05-09T07:41:18.076Z,70816.00
2024-05-09T07:42:16.084Z,73664.00
2024-05-09T07:43:17.055Z,74080.00
2024-05-09T07:44:16.048Z,73984.00
2024-05-09T07:45:38.986Z,75168.00
2024-05-09T07:47:14.355Z,77120.00
2024-05-09T07:48:29.008Z,77952.00
2024-05-09T07:50:56.121Z,77056.00
2024-05-09T07:53:29.986Z,80000.00
2024-05-09T07:53:38.159Z,81056.00
2024-05-09T07:54:18.083Z,79936.00
2024-05-09T07:55:16.132Z,78624.00
2024-05-09T07:56:16.319Z,78304.00
2024-05-09T07:57:15.958Z,79776.00
2024-05-09T07:58:15.871Z,80192.00
2024-05-09T07:59:15.906Z,77984.00
2024-05-09T08:00:20.419Z,76672.00
2024-05-09T08:01:18.002Z,78784.00
2024-05-09T08:02:15.953Z,81216.00
2024-05-09T08:03:15.967Z,81824.00
2024-05-09T08:04:15.896Z,81632.00
2024-05-09T08:05:16.035Z,81536.00
2024-05-09T08:06:15.778Z,81312.00
2024-05-09T08:07:15.835Z,80160.00
2024-05-09T08:08:15.795Z,78976.00
2024-05-09T08:09:20.807Z,80640.00
2024-05-09T08:10:22.165Z,87488.00
2024-05-09T08:11:17.807Z,90464.00
2024-05-09T08:12:15.735Z,87008.00
2024-05-09T08:13:15.798Z,83552.00
2024-05-09T08:14:15.745Z,80704.00
2024-05-09T08:15:15.708Z,79648.00
2024-05-09T08:16:15.806Z,77536.00
2024-05-09T08:17:15.696Z,79008.00
2024-05-09T08:18:16.786Z,82976.00
2024-05-09T08:19:15.757Z,87872.00
2024-05-09T08:20:22.959Z,88992.00
2024-05-09T08:21:17.656Z,86720.00
2024-05-09T08:22:15.660Z,83328.00
2024-05-09T08:23:15.674Z,82176.00
2024-05-09T08:24:15.636Z,84000.00
2024-05-09T08:25:15.863Z,86912.00
2024-05-09T08:26:15.595Z,89696.00
2024-05-09T08:27:15.586Z,87488.00
2024-05-09T08:28:15.753Z,83936.00
2024-05-09T08:29:15.550Z,81312.00
2024-05-09T08:30:22.077Z,81344.00
2024-05-09T08:31:17.608Z,79904.00
2024-05-09T08:32:15.594Z,78016.00
2024-05-09T08:33:15.804Z,80544.00
2024-05-09T08:34:15.680Z,82944.00
2024-05-09T08:35:15.488Z,83424.00
2024-05-09T08:36:15.549Z,83712.00
2024-05-09T08:37:21.508Z,85024.00
2024-05-09T08:38:17.490Z,85280.00
2024-05-09T08:39:15.455Z,85216.00
2024-05-09T08:40:23.699Z,84096.00
2024-05-09T08:41:17.486Z,83744.00
2024-05-09T08:42:15.443Z,81856.00
2024-05-09T08:43:15.572Z,78208.00
2024-05-09T08:44:16.416Z,74400.00
2024-05-09T08:45:15.417Z,74688.00
2024-05-09T08:46:15.412Z,78976.00
2024-05-09T08:47:15.449Z,83488.00
2024-05-09T08:48:16.356Z,85248.00
2024-05-09T08:49:15.758Z,84640.00
2024-05-09T08:50:24.338Z,86048.00
2024-05-09T08:51:17.337Z,86656.00
2024-05-09T08:52:15.434Z,80992.00
2024-05-09T08:53:15.720Z,76448.00
2024-05-09T08:54:15.354Z,77920.00
2024-05-09T08:55:15.475Z,80864.00
2024-05-09T08:56:15.340Z,83040.00
2024-05-09T08:57:15.334Z,84992.00
2024-05-09T08:58:15.913Z,85856.00
2024-05-09T08:59:15.363Z,85120.00
2024-05-09T09:00:21.682Z,86464.00
2024-05-09T09:01:16.323Z,86848.00
2024-05-09T09:02:15.464Z,87392.00
2024-05-09T09:03:16.336Z,87296.00
2024-05-09T09:04:15.878Z,83392.00
2024-05-09T09:05:15.285Z,80480.00
2024-05-09T09:06:15.290Z,81216.00
2024-05-09T09:07:15.215Z,84768.00
2024-05-09T09:08:15.190Z,87904.00
2024-05-09T09:09:15.179Z,89760.00
2024-05-09T09:10:21.232Z,92896.00
2024-05-09T09:11:17.208Z,93120.00
2024-05-09T09:12:15.134Z,89728.00
2024-05-09T09:13:15.240Z,86304.00
2024-05-09T09:14:15.151Z,82816.00
2024-05-09T09:15:15.137Z,82080.00
2024-05-09T09:16:15.132Z,82784.00
2024-05-09T09:17:15.167Z,82816.00
2024-05-09T09:18:15.223Z,81728.00
2024-05-09T09:19:15.519Z,81568.00
2024-05-09T09:20:22.999Z,80128.00
2024-05-09T09:21:16.052Z,78784.00
2024-05-09T09:22:15.108Z,77984.00
2024-05-09T09:23:15.013Z,77664.00
2024-05-09T09:24:15.011Z,77984.00
2024-05-09T09:25:15.056Z,79360.00
2024-05-09T09:26:15.002Z,79776.00
2024-05-09T09:27:14.980Z,78144.00
2024-05-09T09:28:15.076Z,77120.00
2024-05-09T09:29:14.963Z,79840.00
2024-05-09T09:30:27.794Z,81728.00
2024-05-09T09:31:16.961Z,82304.00
2024-05-09T09:32:15.025Z,83392.00
2024-05-09T09:33:14.989Z,86144.00
2024-05-09T09:34:15.075Z,87648.00
2024-05-09T09:35:14.890Z,90016.00
2024-05-09T09:36:14.900Z,86464.00
2024-05-09T09:37:14.969Z,76832.00
2024-05-09T09:38:14.895Z,71424.00
2024-05-09T09:39:14.859Z,76096.00
2024-05-09T09:40:15.685Z,83296.00
2024-05-09T09:41:15.953Z,84608.00
2024-05-09T09:42:14.911Z,82048.00
2024-05-09T09:43:15.196Z,78048.00
2024-05-09T09:44:14.816Z,74624.00
2024-05-09T09:45:14.808Z,73120.00
2024-05-09T09:46:14.962Z,73760.00
2024-05-09T09:47:14.827Z,75008.00
2024-05-09T09:48:14.938Z,77056.00
2024-05-09T09:49:14.951Z,80128.00
2024-05-09T09:50:17.208Z,82816.00
2024-05-09T09:51:15.769Z,85600.00
2024-05-09T09:52:14.845Z,85248.00
2024-05-09T09:53:14.753Z,78656.00
2024-05-09T09:54:14.712Z,75136.00
2024-05-09T09:55:14.855Z,79680.00
2024-05-09T09:56:14.686Z,80000.00
2024-05-09T09:57:14.680Z,72256.00
2024-05-09T09:58:14.884Z,67328.00
2024-05-09T09:59:14.694Z,66880.00
2024-05-09T10:00:21.079Z,67712.00
2024-05-09T10:01:16.786Z,71360.00
2024-05-09T10:02:15.746Z,75360.00
2024-05-09T10:03:15.671Z,76128.00
2024-05-09T10:04:14.742Z,75936.00
2024-05-09T10:05:14.717Z,77728.00
2024-05-09T10:06:14.607Z,78080.00
2024-05-09T10:07:14.712Z,74528.00
2024-05-09T10:08:14.572Z,77312.00
2024-05-09T10:09:14.599Z,80480.00
2024-05-09T10:10:16.589Z,77696.00
2024-05-09T10:11:15.568Z,75104.00
2024-05-09T10:12:14.548Z,76320.00
2024-05-09T10:13:14.681Z,78976.00
2024-05-09T10:14:14.525Z,77056.00
2024-05-09T10:15:14.534Z,80576.00
2024-05-09T10:16:14.549Z,80288.00
2024-05-09T10:17:14.505Z,74304.00
2024-05-09T10:18:15.884Z,73856.00
2024-05-09T10:19:14.542Z,74144.00
2024-05-09T10:20:21.464Z,69632.00
2024-05-09T10:21:16.454Z,66528.00
2024-05-09T10:22:14.565Z,63872.00
2024-05-09T10:23:14.431Z,61952.00
2024-05-09T10:24:14.418Z,63712.00
2024-05-09T10:25:14.481Z,67424.00
2024-05-09T10:26:14.425Z,72096.00
2024-05-09T10:27:14.397Z,73280.00
2024-05-09T10:28:14.553Z,70528.00
2024-05-09T10:29:14.373Z,65024.00
2024-05-09T10:30:21.280Z,64736.00
2024-05-09T10:31:16.624Z,32128.00
2024-05-09T10:32:14.338Z,14516.00
2024-05-09T10:33:14.408Z,13128.00
2024-05-09T10:34:14.458Z,36288.00
2024-05-09T10:35:14.339Z,67648.00
2024-05-09T10:36:14.330Z,66400.00
2024-05-09T10:37:14.360Z,59936.00
2024-05-09T10:38:14.300Z,41056.00
2024-05-09T10:39:14.301Z,67584.00
2024-05-09T10:40:22.837Z,70880.00
2024-05-09T10:41:16.255Z,26464.00
2024-05-09T10:42:14.283Z,69696.00
2024-05-09T10:43:14.361Z,70080.00
2024-05-09T10:44:14.242Z,68160.00
2024-05-09T10:45:14.212Z,66112.00
2024-05-09T10:46:14.324Z,69536.00
2024-05-09T10:47:14.209Z,72576.00
2024-05-09T10:48:14.280Z,68960.00
2024-05-09T10:49:14.313Z,64160.00
2024-05-09T10:50:22.259Z,62496.00
2024-05-09T10:51:16.165Z,61504.00
2024-05-09T10:52:14.230Z,62720.00
2024-05-09T10:53:14.134Z,62592.00
2024-05-09T10:54:14.124Z,17824.00
2024-05-09T10:55:14.187Z,10704.00
2024-05-09T10:56:14.219Z,10116.00
2024-05-09T10:57:14.140Z,9760.00
2024-05-09T10:58:14.180Z,10148.00
2024-05-09T10:59:14.098Z,11192.00
2024-05-09T11:00:19.486Z,61824.00
2024-05-09T11:01:16.235Z,60480.00
2024-05-09T11:02:14.135Z,59584.00
2024-05-09T11:03:14.103Z,60416.00
2024-05-09T11:04:14.365Z,57088.00
2024-05-09T11:05:14.235Z,56640.00
2024-05-09T11:06:13.992Z,58304.00
2024-05-09T11:07:15.034Z,57760.00
2024-05-09T11:08:13.994Z,59776.00
2024-05-09T11:09:13.977Z,62336.00
2024-05-09T11:10:17.815Z,60384.00
2024-05-09T11:11:15.011Z,58528.00
2024-05-09T11:12:13.962Z,54112.00
2024-05-09T11:13:14.073Z,57056.00
2024-05-09T11:14:13.937Z,57664.00
2024-05-09T11:15:14.050Z,58016.00
2024-05-09T11:16:14.030Z,60576.00
2024-05-09T11:17:13.922Z,59328.00
2024-05-09T11:18:13.990Z,58144.00
2024-05-09T11:19:14.100Z,56480.00
2024-05-09T11:20:20.046Z,54944.00
2024-05-09T11:21:14.863Z,54080.00
2024-05-09T11:22:13.990Z,53120.00
2024-05-09T11:23:13.869Z,13116.00
2024-05-09T11:24:13.841Z,12072.00
2024-05-09T11:25:13.880Z,11920.00
2024-05-09T11:26:13.816Z,11968.00
2024-05-09T11:27:13.800Z,11816.00
2024-05-09T11:28:13.865Z,11644.00
2024-05-09T11:29:17.111Z,11636.00
2024-05-09T11:30:20.871Z,11708.00
2024-05-09T11:31:15.773Z,11804.00
2024-05-09T11:32:13.828Z,11636.00
2024-05-09T11:33:13.842Z,11508.00
2024-05-09T11:34:13.737Z,11372.00
2024-05-09T11:35:13.767Z,11632.00
2024-05-09T11:36:13.706Z,12404.00
2024-05-09T11:37:13.912Z,15004.00
2024-05-09T11:38:13.736Z,14332.00
2024-05-09T11:39:13.688Z,28480.00
2024-05-09T11:40:20.987Z,21024.00
2024-05-09T11:41:15.691Z,21440.00
2024-05-09T11:42:13.651Z,39648.00
2024-05-09T11:43:13.727Z,48800.00
2024-05-09T11:44:13.632Z,50272.00
2024-05-09T11:45:13.629Z,55648.00
2024-05-09T11:46:13.871Z,59520.00
2024-05-09T11:47:13.666Z,53696.00
2024-05-09T11:48:13.632Z,52864.00
2024-05-09T11:49:13.786Z,52768.00
2024-05-09T11:50:22.383Z,52896.00
2024-05-09T11:51:15.598Z,54016.00
2024-05-09T11:52:13.630Z,52032.00
2024-05-09T11:53:13.539Z,52832.00
2024-05-09T11:54:13.515Z,54144.00
2024-05-09T11:55:13.575Z,19616.00
2024-05-09T11:56:13.487Z,43744.00
2024-05-09T11:57:13.535Z,17728.00
2024-05-09T11:58:13.704Z,16448.00
2024-05-09T11:59:13.485Z,16160.00
2024-05-09T12:00:20.731Z,16512.00
2024-05-09T12:01:15.514Z,14336.00
2024-05-09T12:02:13.687Z,13692.00
2024-05-09T12:03:13.556Z,13248.00
2024-05-09T12:04:13.633Z,12924.00
2024-05-09T12:05:13.585Z,13672.00
2024-05-09T12:06:13.424Z,38944.00
2024-05-09T12:07:13.609Z,13332.00
2024-05-09T12:08:13.374Z,13708.00
2024-05-09T12:09:13.378Z,13436.00
2024-05-09T12:10:16.857Z,22656.00
2024-05-09T12:11:15.416Z,25728.00
2024-05-09T12:12:13.346Z,24736.00
2024-05-09T12:13:13.357Z,28704.00
2024-05-09T12:14:13.309Z,27520.00
2024-05-09T12:15:13.295Z,23296.00
2024-05-09T12:16:14.136Z,22240.00